createdAt,value
2019-03-13T00:00:08.561Z,0.78
2019-03-13T00:03:44.409Z,0.60
2019-03-13T00:05:00.933Z,0.65
2019-03-13T00:06:18.037Z,1.10
2019-03-13T00:07:34.757Z,0.72
2019-03-13T00:08:51.372Z,0.60
2019-03-13T00:10:08.513Z,0.70
2019-03-13T00:11:25.150Z,0.60
2019-03-13T00:12:41.982Z,0.75
2019-03-13T00:13:58.362Z,0.80
2019-03-13T00:15:14.684Z,0.70
2019-03-13T00:16:31.925Z,0.80
2019-03-13T00:17:48.285Z,0.65
2019-03-13T00:19:04.774Z,0.70
2019-03-13T00:20:21.253Z,0.70
2019-03-13T00:21:37.981Z,0.50
2019-03-13T00:22:54.725Z,0.50
2019-03-13T00:24:11.123Z,0.60
2019-03-13T00:25:27.423Z,0.57
2019-03-13T00:26:43.977Z,0.70
2019-03-13T00:28:00.788Z,0.75
2019-03-13T00:29:16.053Z,0.50
2019-03-13T00:30:41.214Z,0.57
2019-03-13T00:31:59.748Z,0.60
2019-03-13T00:33:16.592Z,0.50
2019-03-13T00:34:33.837Z,0.50
2019-03-13T00:35:50.369Z,0.70
2019-03-13T00:37:07.270Z,0.50
2019-03-13T00:38:24.577Z,0.42
2019-03-13T00:39:41.320Z,0.50
2019-03-13T00:40:59.588Z,0.50
2019-03-13T00:42:16.632Z,0.50
2019-03-13T00:43:32.916Z,0.50
2019-03-13T00:44:51.578Z,0.40
2019-03-13T00:46:08.833Z,0.40
2019-03-13T00:47:25.885Z,0.50
2019-03-13T00:48:42.540Z,0.50
2019-03-13T00:49:58.837Z,0.40
2019-03-13T00:51:15.246Z,0.40
2019-03-13T00:52:32.156Z,0.40
2019-03-13T00:53:48.600Z,0.60
2019-03-13T00:55:05.230Z,0.40
2019-03-13T00:56:21.561Z,0.50
2019-03-13T00:57:38.717Z,0.42
2019-03-13T00:58:55.399Z,0.50
2019-03-13T01:00:13.880Z,0.60
2019-03-13T01:01:36.121Z,0.40
2019-03-13T01:02:53.194Z,0.40
2019-03-13T01:04:20.032Z,0.40
2019-03-13T01:05:42.236Z,0.40
2019-03-13T01:07:05.124Z,0.50
2019-03-13T01:08:22.225Z,0.50
2019-03-13T01:09:38.753Z,0.40
2019-03-13T01:10:55.383Z,0.50
2019-03-13T01:12:12.281Z,0.40
2019-03-13T01:13:28.728Z,0.50
2019-03-13T01:14:45.222Z,0.50
2019-03-13T01:16:02.493Z,0.50
2019-03-13T01:17:19.350Z,0.50
2019-03-13T01:18:35.884Z,0.50
2019-03-13T01:19:52.430Z,0.50
2019-03-13T01:21:09.514Z,0.50
2019-03-13T01:22:26.072Z,0.60
2019-03-13T01:23:42.999Z,0.50
2019-03-13T01:24:59.499Z,0.65
2019-03-13T01:26:16.270Z,0.60
2019-03-13T01:27:33.021Z,0.68
2019-03-13T01:28:49.825Z,0.68
2019-03-13T01:30:06.445Z,0.70
2019-03-13T01:31:44.866Z,0.60
2019-03-13T01:33:06.191Z,0.60
2019-03-13T01:34:31.441Z,0.75
2019-03-13T01:35:55.620Z,0.70
2019-03-13T01:37:12.389Z,0.60
2019-03-13T01:38:29.019Z,0.70
2019-03-13T01:39:46.801Z,0.62
2019-03-13T01:40:51.896Z,0.62
2019-03-13T01:42:16.063Z,0.70
2019-03-13T01:43:33.021Z,0.60
2019-03-13T01:44:49.394Z,0.60
2019-03-13T01:46:06.037Z,0.80
2019-03-13T01:47:23.141Z,0.80
2019-03-13T01:48:39.557Z,0.70
2019-03-13T01:49:44.552Z,0.60
2019-03-13T01:50:59.773Z,0.50
2019-03-13T01:52:16.198Z,0.70
2019-03-13T01:53:33.508Z,0.50
2019-03-13T01:54:50.191Z,1.12
2019-03-13T01:56:06.582Z,0.70
2019-03-13T01:57:11.609Z,0.70
2019-03-13T01:58:35.851Z,0.60
2019-03-13T01:59:52.424Z,0.70
2019-03-13T02:01:08.966Z,0.60
2019-03-13T02:02:26.064Z,0.70
2019-03-13T02:03:42.703Z,0.70
2019-03-13T02:04:59.122Z,0.70
2019-03-13T02:06:15.712Z,0.60
2019-03-13T02:07:32.893Z,0.60
2019-03-13T02:10:26.441Z,0.82
2019-03-13T02:11:43.661Z,0.60
2019-03-13T02:13:00.919Z,0.60
2019-03-13T02:14:18.184Z,0.70
2019-03-13T02:15:23.200Z,0.60
2019-03-13T02:16:41.628Z,0.80
2019-03-13T02:17:58.192Z,0.70
2019-03-13T02:19:14.606Z,0.65
2019-03-13T02:20:31.504Z,0.60
2019-03-13T02:21:48.035Z,0.68
2019-03-13T02:23:05.609Z,0.82
2019-03-13T02:24:22.751Z,0.60
2019-03-13T02:25:39.358Z,0.60
2019-03-13T02:26:55.884Z,0.70
2019-03-13T02:28:12.266Z,0.80
2019-03-13T02:29:17.261Z,0.55
2019-03-13T02:30:34.094Z,0.70
2019-03-13T02:31:39.294Z,0.60
2019-03-13T02:33:03.504Z,0.60
2019-03-13T02:34:20.500Z,0.60
2019-03-13T02:35:37.122Z,0.75
2019-03-13T02:36:54.445Z,0.70
2019-03-13T02:38:10.870Z,0.80
2019-03-13T02:39:27.805Z,0.68
2019-03-13T02:40:44.343Z,0.62
2019-03-13T02:42:00.744Z,0.80
2019-03-13T02:43:18.052Z,0.75
2019-03-13T02:44:34.794Z,0.80
2019-03-13T02:45:51.960Z,0.65
2019-03-13T02:47:08.681Z,0.70
2019-03-13T02:48:27.414Z,0.80
2019-03-13T02:49:43.905Z,0.82
2019-03-13T02:51:01.094Z,0.90
2019-03-13T02:52:17.481Z,0.60
2019-03-13T02:53:34.637Z,0.93
2019-03-13T02:54:51.235Z,0.70
2019-03-13T02:56:07.605Z,0.88
2019-03-13T02:57:24.209Z,1.00
2019-03-13T02:58:40.598Z,0.80
2019-03-13T02:59:57.413Z,0.80
2019-03-13T03:01:38.638Z,0.90
2019-03-13T03:02:58.486Z,0.93
2019-03-13T03:04:15.107Z,1.22
2019-03-13T03:05:31.699Z,0.90
2019-03-13T03:06:48.837Z,1.00
2019-03-13T03:07:53.861Z,1.02
2019-03-13T03:09:18.082Z,1.00
2019-03-13T03:10:42.321Z,1.10
2019-03-13T03:11:59.123Z,1.10
2019-03-13T03:13:15.598Z,1.10
2019-03-13T03:14:32.836Z,1.32
2019-03-13T03:15:49.073Z,1.25
2019-03-13T03:17:06.158Z,1.20
2019-03-13T03:18:24.487Z,1.30
2019-03-13T03:19:41.013Z,0.95
2019-03-13T03:20:57.862Z,1.20
2019-03-13T03:22:14.294Z,1.30
2019-03-13T03:23:30.617Z,1.45
2019-03-13T03:24:47.198Z,1.30
2019-03-13T03:26:04.357Z,1.20
2019-03-13T03:27:20.619Z,1.60
2019-03-13T03:28:37.248Z,1.30
2019-03-13T03:29:55.031Z,1.50
2019-03-13T03:31:12.332Z,1.40
2019-03-13T03:32:29.022Z,1.40
2019-03-13T03:33:45.826Z,1.25
2019-03-13T03:35:02.516Z,1.25
2019-03-13T03:36:19.199Z,1.10
2019-03-13T03:37:36.401Z,1.02
2019-03-13T03:38:53.611Z,1.50
2019-03-13T03:40:10.780Z,1.30
2019-03-13T03:41:27.439Z,1.30
2019-03-13T03:42:44.632Z,1.40
2019-03-13T03:44:01.228Z,1.30
2019-03-13T03:45:18.219Z,1.17
2019-03-13T03:46:34.557Z,1.42
2019-03-13T03:47:51.760Z,1.57
2019-03-13T03:49:08.437Z,1.60
2019-03-13T03:50:24.791Z,1.32
2019-03-13T03:51:42.800Z,1.50
2019-03-13T03:52:59.310Z,1.10
2019-03-13T03:54:16.548Z,1.50
2019-03-13T03:55:33.616Z,1.32
2019-03-13T03:56:50.108Z,1.57
2019-03-13T03:58:06.761Z,1.20
2019-03-13T03:59:24.087Z,1.40
2019-03-13T04:00:40.555Z,1.30
2019-03-13T04:01:57.716Z,1.20
2019-03-13T04:03:14.245Z,1.47
2019-03-13T04:04:31.295Z,1.05
2019-03-13T04:05:47.736Z,1.30
2019-03-13T04:07:04.223Z,1.00
2019-03-13T04:08:20.533Z,1.40
2019-03-13T04:09:37.227Z,1.10
2019-03-13T04:10:55.446Z,1.00
2019-03-13T04:12:12.469Z,1.10
2019-03-13T04:13:29.625Z,1.20
2019-03-13T04:14:46.270Z,1.10
2019-03-13T04:16:01.520Z,1.35
2019-03-13T04:17:25.653Z,0.98
2019-03-13T04:18:42.053Z,1.15
2019-03-13T04:19:59.455Z,0.98
2019-03-13T04:21:16.752Z,1.17
2019-03-13T04:22:33.273Z,1.30
2019-03-13T04:23:50.386Z,1.20
2019-03-13T04:25:07.003Z,1.10
2019-03-13T04:26:23.682Z,1.02
2019-03-13T04:27:40.267Z,1.10
2019-03-13T04:28:57.462Z,1.00
2019-03-13T04:30:14.077Z,1.17
2019-03-13T04:31:29.341Z,1.00
2019-03-13T04:32:53.582Z,0.80
2019-03-13T04:34:10.341Z,1.20
2019-03-13T04:35:26.703Z,1.25
2019-03-13T04:36:43.597Z,1.02
2019-03-13T04:38:00.309Z,0.80
2019-03-13T04:39:16.662Z,1.10
2019-03-13T04:40:33.133Z,0.90
2019-03-13T04:41:50.125Z,1.30
2019-03-13T04:43:07.389Z,1.10
2019-03-13T04:44:23.817Z,0.95
2019-03-13T04:45:40.233Z,1.10
2019-03-13T04:46:59.676Z,0.90
2019-03-13T04:48:16.934Z,1.02
2019-03-13T04:49:33.447Z,1.05
2019-03-13T04:50:49.973Z,1.10
2019-03-13T04:52:06.697Z,0.82
2019-03-13T04:53:23.389Z,0.90
2019-03-13T04:54:39.861Z,1.20
2019-03-13T04:55:44.877Z,0.90
2019-03-13T04:57:01.386Z,0.80
2019-03-13T04:58:18.511Z,1.00
2019-03-13T04:59:35.666Z,0.95
2019-03-13T05:00:52.182Z,0.80
2019-03-13T05:02:08.705Z,1.00
2019-03-13T05:03:25.032Z,0.90
2019-03-13T05:04:41.641Z,1.20
2019-03-13T05:05:59.834Z,1.20
2019-03-13T05:07:16.324Z,1.00
2019-03-13T05:08:44.539Z,1.20
2019-03-13T05:09:52.053Z,0.90
2019-03-13T05:11:08.474Z,1.30
2019-03-13T05:12:26.049Z,0.90
2019-03-13T05:13:43.303Z,1.37
2019-03-13T05:14:59.708Z,0.90
2019-03-13T05:16:16.024Z,1.10
2019-03-13T05:17:33.534Z,0.90
2019-03-13T05:18:50.131Z,0.90
2019-03-13T05:20:07.116Z,0.90
2019-03-13T05:21:12.151Z,0.90
2019-03-13T05:22:17.180Z,1.30
2019-03-13T05:23:33.760Z,0.85
2019-03-13T05:24:50.256Z,1.32
2019-03-13T05:26:07.429Z,0.82
2019-03-13T05:27:23.809Z,0.90
2019-03-13T05:28:40.748Z,0.90
2019-03-13T05:29:57.529Z,0.80
2019-03-13T05:31:14.400Z,0.95
2019-03-13T05:32:30.856Z,1.00
2019-03-13T05:33:47.376Z,0.80
2019-03-13T05:35:03.905Z,0.82
2019-03-13T05:36:20.476Z,0.80
2019-03-13T05:37:36.958Z,0.88
2019-03-13T05:38:52.208Z,0.80
2019-03-13T05:40:16.395Z,1.00
2019-03-13T05:41:33.517Z,1.00
2019-03-13T05:42:49.825Z,0.70
2019-03-13T05:44:06.728Z,0.95
2019-03-13T05:45:23.528Z,0.90
2019-03-13T05:46:40.017Z,0.85
2019-03-13T05:47:56.638Z,0.90
2019-03-13T05:49:01.632Z,0.60
2019-03-13T05:50:25.786Z,1.20
2019-03-13T05:51:42.260Z,0.98
2019-03-13T05:52:58.785Z,0.90
2019-03-13T05:54:15.304Z,0.93
2019-03-13T05:55:30.516Z,1.20
2019-03-13T05:58:30.415Z,0.70
2019-03-13T05:59:47.202Z,0.75
2019-03-13T06:01:03.896Z,0.70
2019-03-13T06:02:20.278Z,0.80
2019-03-13T06:03:37.381Z,0.70
2019-03-13T06:04:54.255Z,1.07
2019-03-13T06:06:11.001Z,0.72
2019-03-13T06:07:27.785Z,0.80
2019-03-13T06:08:44.153Z,0.90
2019-03-13T06:10:00.578Z,0.95
2019-03-13T06:11:17.041Z,0.78
2019-03-13T06:12:34.489Z,0.80
2019-03-13T06:13:50.862Z,0.80
2019-03-13T06:15:07.293Z,0.80
2019-03-13T06:16:23.685Z,0.60
2019-03-13T06:17:39.980Z,0.85
2019-03-13T06:18:56.345Z,1.00
2019-03-13T06:20:13.267Z,0.65
2019-03-13T06:21:29.796Z,0.57
2019-03-13T06:22:45.022Z,0.80
2019-03-13T06:24:09.151Z,0.80
2019-03-13T06:25:25.718Z,0.68
2019-03-13T06:26:42.379Z,0.50
2019-03-13T06:27:59.161Z,0.80
2019-03-13T06:29:15.718Z,0.70
2019-03-13T06:30:32.197Z,0.68
2019-03-13T06:31:48.758Z,0.80
2019-03-13T06:33:05.491Z,0.62
2019-03-13T06:34:22.300Z,0.78
2019-03-13T06:35:38.802Z,0.72
2019-03-13T06:36:56.061Z,0.90
2019-03-13T06:38:12.497Z,0.70
2019-03-13T06:39:31.927Z,0.98
2019-03-13T06:40:47.414Z,0.70
2019-03-13T06:42:04.048Z,0.70
2019-03-13T06:43:19.262Z,0.70
2019-03-13T06:44:43.451Z,0.60
2019-03-13T06:45:59.777Z,0.70
2019-03-13T06:47:16.205Z,0.70
2019-03-13T06:48:36.777Z,0.78
2019-03-13T06:49:53.658Z,0.88
2019-03-13T06:51:10.813Z,0.60
2019-03-13T06:52:27.936Z,0.95
2019-03-13T06:53:44.441Z,0.80
2019-03-13T06:55:00.860Z,0.70
2019-03-13T06:56:16.086Z,0.70
2019-03-13T07:01:16.082Z,1.20
2019-03-13T07:02:39.484Z,0.90
2019-03-13T07:04:15.000Z,0.80
2019-03-13T07:05:50.563Z,0.70
2019-03-13T07:07:16.936Z,0.60
2019-03-13T07:08:46.951Z,0.80
2019-03-13T07:10:13.581Z,0.98
2019-03-13T07:11:49.481Z,0.60
2019-03-13T07:13:25.761Z,0.60
2019-03-13T07:15:01.067Z,0.62
2019-03-13T07:16:40.157Z,0.80
2019-03-13T07:18:02.316Z,0.70
2019-03-13T07:19:38.393Z,0.70
2019-03-13T07:21:23.222Z,0.80
2019-03-13T07:23:03.990Z,0.70
2019-03-13T07:24:42.616Z,0.80
2019-03-13T07:26:18.239Z,0.80
2019-03-13T07:27:54.424Z,0.90
2019-03-13T07:29:37.464Z,0.93
2019-03-13T07:31:19.854Z,0.72
2019-03-13T07:32:56.763Z,0.85
2019-03-13T07:34:32.352Z,0.90
2019-03-13T07:36:01.448Z,0.82
2019-03-13T07:37:37.080Z,0.98
2019-03-13T07:39:12.485Z,0.80
2019-03-13T07:40:55.619Z,0.80
2019-03-13T07:42:23.106Z,0.85
2019-03-13T07:43:58.496Z,0.90
2019-03-13T07:45:28.152Z,1.02
2019-03-13T07:47:03.890Z,0.60
2019-03-13T07:48:42.265Z,0.80
2019-03-13T07:50:05.841Z,1.00
2019-03-13T07:51:41.949Z,1.25
2019-03-13T07:53:09.270Z,0.80
2019-03-13T07:54:45.350Z,0.70
2019-03-13T07:56:11.953Z,0.80
2019-03-13T07:57:37.128Z,0.80
2019-03-13T07:59:11.179Z,0.90
2019-03-13T08:00:34.636Z,0.93
2019-03-13T08:02:16.325Z,0.93
2019-03-13T08:03:54.953Z,0.60
2019-03-13T08:05:30.250Z,0.80
2019-03-13T08:07:09.475Z,0.88
2019-03-13T08:08:48.100Z,0.85
2019-03-13T08:10:23.442Z,1.00
2019-03-13T08:11:58.726Z,0.90
2019-03-13T08:13:27.207Z,0.85
2019-03-13T08:14:51.835Z,0.78
2019-03-13T08:16:28.028Z,0.90
2019-03-13T08:18:03.606Z,0.90
2019-03-13T08:19:39.704Z,0.90
2019-03-13T08:21:16.652Z,0.90
2019-03-13T08:22:51.937Z,0.80
2019-03-13T08:24:28.221Z,0.90
2019-03-13T08:26:04.250Z,0.98
2019-03-13T08:27:27.933Z,1.00
2019-03-13T08:29:03.200Z,0.80
2019-03-13T08:30:39.453Z,0.93
2019-03-13T08:32:17.932Z,0.88
2019-03-13T08:33:53.869Z,0.62
2019-03-13T08:35:29.294Z,0.80
2019-03-13T08:37:04.697Z,0.80
2019-03-13T08:38:47.802Z,1.12
2019-03-13T08:40:23.213Z,0.90
2019-03-13T08:41:53.757Z,1.10
2019-03-13T08:43:29.936Z,0.80
2019-03-13T08:44:58.232Z,1.10
2019-03-13T08:46:19.138Z,1.07
2019-03-13T08:48:02.235Z,0.85
2019-03-13T08:49:27.774Z,0.80
2019-03-13T08:51:10.888Z,0.75
2019-03-13T08:52:33.981Z,1.00
2019-03-13T08:53:57.478Z,0.90
2019-03-13T08:55:35.617Z,1.35
2019-03-13T08:57:31.070Z,0.68
2019-03-13T08:59:06.485Z,0.90
2019-03-13T09:02:25.416Z,0.80
2019-03-13T09:03:56.232Z,0.90
2019-03-13T09:05:31.607Z,0.50
2019-03-13T09:07:03.853Z,1.00
2019-03-13T09:08:32.803Z,1.15
2019-03-13T09:10:13.128Z,0.80
2019-03-13T09:11:50.250Z,1.00
2019-03-13T09:13:14.317Z,1.05
2019-03-13T09:14:50.543Z,0.65
2019-03-13T09:16:25.873Z,0.98
2019-03-13T09:18:01.394Z,1.02
2019-03-13T09:19:36.773Z,0.75
2019-03-13T09:21:04.245Z,0.98
2019-03-13T09:22:26.851Z,0.90
2019-03-13T09:23:51.658Z,1.02
2019-03-13T09:25:26.955Z,1.00
2019-03-13T09:27:08.493Z,0.70
2019-03-13T09:28:43.829Z,0.90
2019-03-13T09:30:19.117Z,0.68
2019-03-13T09:32:00.290Z,0.70
2019-03-13T09:33:38.667Z,0.85
2019-03-13T09:35:02.080Z,0.78
2019-03-13T09:36:56.659Z,0.80
2019-03-13T09:38:38.166Z,1.00
2019-03-13T09:40:18.499Z,1.00
2019-03-13T09:42:01.652Z,0.82
2019-03-13T09:43:29.901Z,0.90
2019-03-13T09:45:08.395Z,1.00
2019-03-13T09:46:47.069Z,0.95
2019-03-13T09:48:22.349Z,0.90
2019-03-13T09:49:52.058Z,0.85
2019-03-13T09:51:33.866Z,0.80
2019-03-13T09:53:09.598Z,0.93
2019-03-13T09:54:46.931Z,1.07
2019-03-13T09:56:30.022Z,0.82
2019-03-13T09:58:05.654Z,0.90
2019-03-13T09:59:43.714Z,1.00
2019-03-13T10:01:25.970Z,0.80
2019-03-13T10:02:53.337Z,0.70
2019-03-13T10:04:29.605Z,0.53
2019-03-13T10:06:05.797Z,0.90
2019-03-13T10:07:27.088Z,0.70
2019-03-13T10:09:02.624Z,0.98
2019-03-13T10:10:40.009Z,0.80
2019-03-13T10:12:15.441Z,0.80
2019-03-13T10:13:49.106Z,0.90
2019-03-13T10:15:25.258Z,0.75
2019-03-13T10:17:10.512Z,1.05
2019-03-13T10:18:27.017Z,0.93
2019-03-13T10:20:02.499Z,0.80
2019-03-13T10:21:44.001Z,0.80
2019-03-13T10:23:10.464Z,0.70
2019-03-13T10:24:46.217Z,0.90
2019-03-13T10:26:21.444Z,0.88
2019-03-13T10:27:49.722Z,1.10
2019-03-13T10:29:31.367Z,0.85
2019-03-13T10:31:00.919Z,0.82
2019-03-13T10:32:36.698Z,1.17
2019-03-13T10:34:11.984Z,0.80
2019-03-13T10:35:47.449Z,0.90
2019-03-13T10:37:09.885Z,0.70
2019-03-13T10:38:45.719Z,0.60
2019-03-13T10:40:21.323Z,0.75
2019-03-13T10:41:58.481Z,0.90
2019-03-13T10:43:42.873Z,0.80
2019-03-13T10:45:08.698Z,0.70
2019-03-13T10:46:43.941Z,0.95
2019-03-13T10:48:20.075Z,0.60
2019-03-13T10:49:56.201Z,0.90
2019-03-13T10:51:32.494Z,0.60
2019-03-13T10:53:23.690Z,0.82
2019-03-13T10:54:58.979Z,0.70
2019-03-13T10:56:27.957Z,0.80
2019-03-13T10:57:59.445Z,1.00
2019-03-13T10:59:42.211Z,0.98
2019-03-13T11:01:07.166Z,0.93
2019-03-13T11:02:29.784Z,1.55
2019-03-13T11:04:03.337Z,1.05
2019-03-13T11:05:38.946Z,1.00
2019-03-13T11:07:17.716Z,0.95
2019-03-13T11:08:52.991Z,0.90
2019-03-13T11:10:32.318Z,1.00
2019-03-13T11:11:57.115Z,0.90
2019-03-13T11:13:25.379Z,0.98
2019-03-13T11:16:48.893Z,1.00
2019-03-13T11:18:24.393Z,1.40
2019-03-13T11:19:50.168Z,0.85
2019-03-13T11:21:18.053Z,1.05
2019-03-13T11:23:01.224Z,1.30
2019-03-13T11:24:31.111Z,1.20
2019-03-13T11:25:52.949Z,1.32
2019-03-13T11:27:29.091Z,1.62
2019-03-13T11:28:51.921Z,1.10
2019-03-13T11:30:22.218Z,1.00
2019-03-13T11:32:17.112Z,1.35
2019-03-13T11:33:52.578Z,1.40
2019-03-13T11:35:35.688Z,1.47
2019-03-13T11:37:11.106Z,1.10
2019-03-13T11:38:42.759Z,1.15
2019-03-13T11:40:18.083Z,1.42
2019-03-13T11:41:53.575Z,1.42
2019-03-13T11:43:19.031Z,0.98
2019-03-13T11:44:48.537Z,1.67
2019-03-13T11:46:23.754Z,1.52
2019-03-13T11:47:47.497Z,0.90
2019-03-13T11:49:25.921Z,1.52
2019-03-13T11:51:00.776Z,1.55
2019-03-13T11:52:37.605Z,1.60
2019-03-13T11:54:38.738Z,1.00
2019-03-13T11:56:18.002Z,1.10
2019-03-13T11:57:34.102Z,1.40
2019-03-13T11:59:03.274Z,1.10
2019-03-13T12:00:37.760Z,1.10
2019-03-13T12:02:03.264Z,1.27
2019-03-13T12:03:38.590Z,1.15
2019-03-13T12:05:11.235Z,1.15
2019-03-13T12:06:47.257Z,0.98
2019-03-13T12:08:13.561Z,1.20
2019-03-13T12:09:49.151Z,1.15
2019-03-13T12:11:18.893Z,1.70
2019-03-13T12:12:54.998Z,1.20
2019-03-13T12:14:30.488Z,1.40
2019-03-13T12:15:57.613Z,1.10
2019-03-13T12:17:21.785Z,1.60
2019-03-13T12:18:46.668Z,1.65
2019-03-13T12:20:16.569Z,1.20
2019-03-13T12:22:14.289Z,1.00
2019-03-13T12:23:49.584Z,1.50
2019-03-13T12:25:28.681Z,1.75
2019-03-13T12:27:09.949Z,1.55
2019-03-13T12:28:48.947Z,1.50
2019-03-13T12:30:16.774Z,1.40
2019-03-13T12:31:55.830Z,2.83
2019-03-13T12:33:35.389Z,1.67
2019-03-13T12:35:19.482Z,1.25
2019-03-13T12:36:54.822Z,1.50
2019-03-13T12:38:49.899Z,1.50
2019-03-13T12:40:25.933Z,1.35
2019-03-13T12:42:01.152Z,1.40
2019-03-13T12:43:36.784Z,1.67
2019-03-13T12:45:05.434Z,1.60
2019-03-13T12:46:44.136Z,1.42
2019-03-13T12:48:20.383Z,1.70
2019-03-13T12:49:55.683Z,1.40
2019-03-13T12:51:27.110Z,1.30
2019-03-13T12:53:02.460Z,1.42
2019-03-13T12:54:36.170Z,1.15
2019-03-13T12:56:04.854Z,1.45
2019-03-13T12:57:35.502Z,1.32
2019-03-13T12:58:59.577Z,1.70
2019-03-13T13:02:16.914Z,1.57
2019-03-13T13:03:56.147Z,1.20
2019-03-13T13:05:25.406Z,1.47
2019-03-13T13:07:01.664Z,1.32
2019-03-13T13:08:30.126Z,1.17
2019-03-13T13:10:05.639Z,1.10
2019-03-13T13:11:41.956Z,1.72
2019-03-13T13:13:17.579Z,1.27
2019-03-13T13:14:52.923Z,1.70
2019-03-13T13:16:28.320Z,1.00
2019-03-13T13:18:03.804Z,1.52
2019-03-13T13:19:21.105Z,1.52
2019-03-13T13:20:37.509Z,1.80
2019-03-13T13:21:54.715Z,1.55
2019-03-13T13:23:11.266Z,1.80
2019-03-13T13:24:27.857Z,1.27
2019-03-13T13:25:44.275Z,1.45
2019-03-13T13:27:00.529Z,1.40
2019-03-13T13:28:17.758Z,1.47
2019-03-13T13:29:34.138Z,1.30
2019-03-13T13:30:51.400Z,1.70
2019-03-13T13:32:07.738Z,1.72
2019-03-13T13:33:24.167Z,1.27
2019-03-13T13:34:40.719Z,1.45
2019-03-13T13:35:57.256Z,1.10
2019-03-13T13:37:14.186Z,1.12
2019-03-13T13:38:30.850Z,1.25
2019-03-13T13:39:47.492Z,0.78
2019-03-13T13:41:03.965Z,1.15
2019-03-13T13:42:20.663Z,1.25
2019-03-13T13:43:37.037Z,1.05
2019-03-13T13:44:52.247Z,1.25
2019-03-13T13:46:35.497Z,1.30
2019-03-13T13:47:52.260Z,1.25
2019-03-13T13:49:09.380Z,1.10
2019-03-13T13:50:26.021Z,1.10
2019-03-13T13:51:43.171Z,1.15
2019-03-13T13:53:00.125Z,1.10
2019-03-13T13:54:17.372Z,1.22
2019-03-13T13:55:33.782Z,1.12
2019-03-13T13:56:50.253Z,0.85
2019-03-13T13:58:07.516Z,1.00
2019-03-13T13:59:24.670Z,1.10
2019-03-13T14:00:41.788Z,1.10
2019-03-13T14:01:58.413Z,1.22
2019-03-13T14:03:14.993Z,1.10
2019-03-13T14:04:31.642Z,1.00
2019-03-13T14:05:48.047Z,1.20
2019-03-13T14:07:04.592Z,1.30
2019-03-13T14:08:21.086Z,1.05
2019-03-13T14:09:37.976Z,1.02
2019-03-13T14:10:54.857Z,1.65
2019-03-13T14:12:11.585Z,1.37
2019-03-13T14:13:28.837Z,1.15
2019-03-13T14:14:45.616Z,1.45
2019-03-13T14:16:02.960Z,1.50
2019-03-13T14:17:19.498Z,1.25
2019-03-13T14:18:36.008Z,0.93
2019-03-13T14:19:52.568Z,1.20
2019-03-13T14:21:10.401Z,1.25
2019-03-13T14:22:26.698Z,0.90
2019-03-13T14:23:43.274Z,1.02
2019-03-13T14:25:00.387Z,1.20
2019-03-13T14:26:15.844Z,1.12
2019-03-13T14:29:21.245Z,0.80
2019-03-13T14:30:37.715Z,0.90
2019-03-13T14:31:54.171Z,1.02
2019-03-13T14:33:10.812Z,1.10
2019-03-13T14:34:28.029Z,1.12
2019-03-13T14:35:46.399Z,1.75
2019-03-13T14:37:03.033Z,1.02
2019-03-13T14:38:19.891Z,1.22
2019-03-13T14:39:37.089Z,1.10
2019-03-13T14:40:54.389Z,0.93
2019-03-13T14:42:10.925Z,1.42
2019-03-13T14:43:27.721Z,1.65
2019-03-13T14:44:45.036Z,1.40
2019-03-13T14:46:01.843Z,1.30
2019-03-13T14:47:19.017Z,1.27
2019-03-13T14:48:35.742Z,1.20
2019-03-13T14:49:54.817Z,1.80
2019-03-13T14:51:11.114Z,1.30
2019-03-13T14:52:27.907Z,1.17
2019-03-13T14:53:44.530Z,1.72
2019-03-13T14:54:59.774Z,1.65
2019-03-13T14:56:16.377Z,1.27
2019-03-13T14:57:32.967Z,1.40
2019-03-13T14:58:49.271Z,1.50
2019-03-13T15:00:06.382Z,1.30
2019-03-13T15:01:24.448Z,1.62
2019-03-13T15:02:41.649Z,1.72
2019-03-13T15:03:58.432Z,1.30
2019-03-13T15:05:15.715Z,1.37
2019-03-13T15:06:32.097Z,1.25
2019-03-13T15:07:49.355Z,1.30
2019-03-13T15:09:06.065Z,1.45
2019-03-13T15:10:24.170Z,1.20
2019-03-13T15:11:40.814Z,1.52
2019-03-13T15:12:58.003Z,1.62
2019-03-13T15:14:14.451Z,1.50
2019-03-13T15:15:31.627Z,1.72
2019-03-13T15:16:48.076Z,1.80
2019-03-13T15:18:04.588Z,1.40
2019-03-13T15:19:21.138Z,1.47
2019-03-13T15:20:38.388Z,1.50
2019-03-13T15:21:54.829Z,1.32
2019-03-13T15:23:11.318Z,1.60
2019-03-13T15:24:28.384Z,2.08
2019-03-13T15:25:45.475Z,1.55
2019-03-13T15:27:02.446Z,1.82
2019-03-13T15:28:18.812Z,1.65
2019-03-13T15:29:35.983Z,1.37
2019-03-13T15:30:52.499Z,1.47
2019-03-13T15:32:08.937Z,1.85
2019-03-13T15:33:24.201Z,1.72
2019-03-13T15:34:48.288Z,1.85
2019-03-13T15:36:04.652Z,1.80
2019-03-13T15:37:21.141Z,1.37
2019-03-13T15:38:38.233Z,1.70
2019-03-13T15:39:54.820Z,1.50
2019-03-13T15:41:11.215Z,1.92
2019-03-13T15:42:27.782Z,1.55
2019-03-13T15:43:44.462Z,1.60
2019-03-13T15:45:02.546Z,1.82
2019-03-13T15:46:19.198Z,2.40
2019-03-13T15:47:36.411Z,1.67
2019-03-13T15:48:53.611Z,2.00
2019-03-13T15:50:09.937Z,1.67
2019-03-13T15:51:27.235Z,1.65
2019-03-13T15:52:43.785Z,1.82
2019-03-13T15:53:59.041Z,1.70
2019-03-13T15:55:23.119Z,1.67
2019-03-13T15:56:47.284Z,1.72
2019-03-13T15:58:04.170Z,1.20
2019-03-13T15:59:20.564Z,1.40
2019-03-13T16:00:36.981Z,1.95
2019-03-13T16:01:53.682Z,1.30
2019-03-13T16:03:10.935Z,2.17
2019-03-13T16:04:27.656Z,1.60
2019-03-13T16:05:44.169Z,1.90
2019-03-13T16:07:00.680Z,1.67
2019-03-13T16:08:17.287Z,1.60
2019-03-13T16:09:33.917Z,1.20
2019-03-13T16:10:51.407Z,1.70
2019-03-13T16:12:07.813Z,1.60
2019-03-13T16:13:24.298Z,1.30
2019-03-13T16:14:40.641Z,1.45
2019-03-13T16:15:57.097Z,1.60
2019-03-13T16:17:13.642Z,1.45
2019-03-13T16:18:30.887Z,1.10
2019-03-13T16:19:47.409Z,1.40
2019-03-13T16:21:04.323Z,1.90
2019-03-13T16:22:20.281Z,1.70
2019-03-13T16:23:44.485Z,1.32
2019-03-13T16:25:01.647Z,1.50
2019-03-13T16:26:18.145Z,1.87
2019-03-13T16:27:34.330Z,1.77
2019-03-13T16:28:50.779Z,1.40
2019-03-13T16:30:08.374Z,2.10
2019-03-13T16:31:24.907Z,1.72
2019-03-13T16:32:44.110Z,1.60
2019-03-13T16:34:00.768Z,1.72
2019-03-13T16:35:17.262Z,1.95
2019-03-13T16:36:33.579Z,1.37
2019-03-13T16:37:50.754Z,1.55
2019-03-13T16:39:06.545Z,1.20
2019-03-13T16:40:32.456Z,1.67
2019-03-13T16:41:48.829Z,2.10
2019-03-13T16:43:05.233Z,1.52
2019-03-13T16:44:21.628Z,1.95
2019-03-13T16:45:38.296Z,1.37
2019-03-13T16:46:54.823Z,2.00
2019-03-13T16:48:13.150Z,1.70
2019-03-13T16:49:29.893Z,1.40
2019-03-13T16:50:46.561Z,1.90
2019-03-13T16:52:03.059Z,1.87
2019-03-13T16:53:20.136Z,1.67
2019-03-13T16:54:36.792Z,1.90
2019-03-13T16:55:53.185Z,1.67
2019-03-13T16:57:09.777Z,1.77
2019-03-13T16:58:26.165Z,1.30
2019-03-13T16:59:42.738Z,1.65
2019-03-13T17:00:59.438Z,2.08
2019-03-13T17:02:16.522Z,2.45
2019-03-13T17:03:33.091Z,1.50
2019-03-13T17:04:49.595Z,1.75
2019-03-13T17:06:06.109Z,1.67
2019-03-13T17:07:21.438Z,1.75
2019-03-13T17:08:45.509Z,1.60
2019-03-13T17:10:02.802Z,1.82
2019-03-13T17:11:20.418Z,1.40
2019-03-13T17:12:37.700Z,2.20
2019-03-13T17:13:54.262Z,1.65
2019-03-13T17:15:10.776Z,1.75
2019-03-13T17:16:27.887Z,1.57
2019-03-13T17:17:44.434Z,1.60
2019-03-13T17:19:00.958Z,1.65
2019-03-13T17:20:17.479Z,1.67
2019-03-13T17:21:34.164Z,1.22
2019-03-13T17:22:50.689Z,1.42
2019-03-13T17:24:07.262Z,1.37
2019-03-13T17:25:23.935Z,1.62
2019-03-13T17:26:41.071Z,1.57
2019-03-13T17:27:57.706Z,1.40
2019-03-13T17:29:13.056Z,1.70
2019-03-13T17:30:37.376Z,2.08
2019-03-13T17:31:54.449Z,1.70
2019-03-13T17:33:10.905Z,1.60
2019-03-13T17:34:30.253Z,1.70
2019-03-13T17:35:45.836Z,1.52
2019-03-13T17:37:02.246Z,1.30
2019-03-13T17:38:20.487Z,1.57
2019-03-13T17:39:37.132Z,1.45
2019-03-13T17:40:53.572Z,2.02
2019-03-13T17:42:10.621Z,1.40
2019-03-13T17:43:38.634Z,2.30
2019-03-13T17:44:45.660Z,1.70
2019-03-13T17:46:02.029Z,1.80
2019-03-13T17:47:18.517Z,2.10
2019-03-13T17:48:35.005Z,1.65
2019-03-13T17:49:51.413Z,1.50
2019-03-13T17:51:08.534Z,1.60
2019-03-13T17:52:24.987Z,2.10
2019-03-13T17:53:41.513Z,2.15
2019-03-13T17:54:58.818Z,1.80
2019-03-13T17:56:16.178Z,1.82
2019-03-13T17:57:33.261Z,1.60
2019-03-13T17:58:49.742Z,1.85
2019-03-13T18:00:06.417Z,1.77
2019-03-13T18:01:23.655Z,1.35
2019-03-13T18:02:40.867Z,1.90
2019-03-13T18:03:57.657Z,1.82
2019-03-13T18:05:14.347Z,1.90
2019-03-13T18:06:31.093Z,1.90
2019-03-13T18:07:47.433Z,1.52
2019-03-13T18:09:04.640Z,1.87
2019-03-13T18:10:22.920Z,1.52
2019-03-13T18:11:39.482Z,1.87
2019-03-13T18:12:56.167Z,1.40
2019-03-13T18:14:13.399Z,1.47
2019-03-13T18:15:29.777Z,1.67
2019-03-13T18:16:46.174Z,1.50
2019-03-13T18:18:02.966Z,2.02
2019-03-13T18:19:19.606Z,2.20
2019-03-13T18:20:36.798Z,2.02
2019-03-13T18:21:53.420Z,1.80
2019-03-13T18:23:10.495Z,1.80
2019-03-13T18:24:27.844Z,1.50
2019-03-13T18:25:44.400Z,1.87
2019-03-13T18:27:00.757Z,1.90
2019-03-13T18:28:17.098Z,1.50
2019-03-13T18:29:33.608Z,2.05